CheckWX is a tool to help pilots better visualize weather data.  It is not intended as a substitute for an official pre-flight weather briefing.

18:34:38 UTC

KPWT METAR
Bremerton National Airport
Bremerton, Washington, USA
Current

16 mins ago

KPWT 221819Z AUTO 19012KT 10SM -RA BKN013 OVC019 01/00 A2992 RMK AO2 RAB03SNE03 P0000 FZRANO
Observed
Feb-22 @ 18:19 UTC
Wind
  • 190° at 12 KTS
Visibility
10 SM
Flight Rules
MVFR
Conditions
Light Rain
Cloud Levels
  • Broken at 1,300' AGL
  • Overcast at 1,900' AGL
Temperature
C / 34°F
Dewpoint
C / 32°F
Humidity
93%
Altimeter
29.92" Hg
Pressure
1013.22 hPa
Current Rain
0.01"
Previous

39 mins ago

KPWT 221756Z AUTO 19013G20KT 7SM -SN OVC015 01/M01 RMK AO2 RAE17SNB17 SLPNO P0000 60000 T00111006 10017 20006 FZRANO $
Observed
Feb-22 @ 17:56 UTC
Wind
  • 190° at 13 KTS
  • Gusting to KTS
Visibility
7 SM
Flight Rules
MVFR
Conditions
Light Snow
Cloud Levels
  • Overcast at 1,500' AGL
Temperature
C / 34°F
Dewpoint
-1°C / 30°F
Humidity
87%
Current Rain
0.01"
Previous

2 hours ago

KPWT 221656Z AUTO 20011KT 10SM -RA OVC019 02/M01 A2995 RMK AO2 RAB25 SLP160 P0000 T00171011 FZRANO
Observed
Feb-22 @ 16:56 UTC
Wind
  • 200° at 11 KTS
Visibility
10 SM
Flight Rules
MVFR
Conditions
Light Rain
Cloud Levels
  • Overcast at 1,900' AGL
Temperature
C / 36°F
Dewpoint
-1°C / 30°F
Humidity
81%
Altimeter
29.95" Hg
Pressure
1016 hPa
Current Rain
0.01"